Time,TemperatureF,DewpointF,PressureIn,WindDirection,WindDirectionDegrees,WindSpeedMPH,WindSpeedGustMPH,Humidity,HourlyPrecipIn,Conditions,Clouds,dailyrainin,SoftwareType,DateUTC
2013-01-22 00:03:00,31.7,19.0,30.23,NNW,346,2.0,2.0,59,0.00,,SKC,0.00,VWS V13.00,2013-01-22 06:03:00,
2013-01-22 00:08:00,31.6,18.9,30.23,NNW,348,4.0,5.0,59,0.00,,SKC,0.00,VWS V13.00,2013-01-22 06:08:00,
2013-01-22 00:13:00,31.6,18.9,30.23,North,5,0.0,5.0,59,0.00,,SKC,0.00,VWS V13.00,2013-01-22 06:13:00,
2013-01-22 00:18:00,31.5,18.4,30.23,North,355,0.0,5.0,58,0.00,,SKC,0.00,VWS V13.00,2013-01-22 06:18:00,
2013-01-22 00:23:00,31.4,18.4,30.23,North,355,1.0,5.0,58,0.00,,SKC,0.00,VWS V13.00,2013-01-22 06:23:00,
2013-01-22 00:28:00,31.3,19.0,30.23,North,5,1.0,5.0,60,0.00,,SKC,0.00,VWS V13.00,2013-01-22 06:28:00,
2013-01-22 00:33:00,31.0,19.9,30.23,North,5,0.0,0.0,63,0.00,,SKC,0.00,VWS V13.00,2013-01-22 06:33:00,
2013-01-22 00:38:00,30.6,19.9,30.23,North,5,0.0,0.0,64,0.00,,SKC,0.00,VWS V13.00,2013-01-22 06:38:00,
2013-01-22 00:43:00,30.3,19.6,30.23,NNE,13,0.0,2.0,64,0.00,,SKC,0.00,VWS V13.00,2013-01-22 06:43:00,
2013-01-22 00:48:00,30.0,19.3,30.23,NNE,13,1.0,2.0,64,0.00,,SKC,0.00,VWS V13.00,2013-01-22 06:48:00,
2013-01-22 00:53:00,29.8,19.1,30.23,NNE,13,0.0,2.0,64,0.00,,SKC,0.00,VWS V13.00,2013-01-22 06:53:00,
2013-01-22 00:58:00,29.6,18.9,30.23,NNE,13,0.0,2.0,64,0.00,,SKC,0.00,VWS V13.00,2013-01-22 06:58:00,
2013-01-22 01:02:00,29.4,19.1,30.24,NNE,13,0.0,1.0,65,0.00,,SKC,0.00,VWS V13.00,2013-01-22 07:02:00,
2013-01-22 01:07:00,29.3,19.0,30.24,NNE,13,0.0,1.0,65,0.00,,SKC,0.00,VWS V13.00,2013-01-22 07:07:00,
2013-01-22 01:12:00,29.4,19.1,30.24,NNE,13,1.0,2.0,65,0.00,,SKC,0.00,VWS V13.00,2013-01-22 07:12:00,
2013-01-22 01:17:00,29.4,19.1,30.24,NNE,13,0.0,3.0,65,0.00,,SKC,0.00,VWS V13.00,2013-01-22 07:17:00,
2013-01-22 01:22:00,29.3,19.4,30.24,North,355,1.0,4.0,66,0.00,,SKC,0.00,VWS V13.00,2013-01-22 07:22:00,
2013-01-22 01:27:00,29.2,19.3,30.24,North,355,0.0,4.0,66,0.00,,SKC,0.00,VWS V13.00,2013-01-22 07:27:00,
2013-01-22 01:32:00,29.0,19.1,30.25,North,355,1.0,2.0,66,0.00,,SKC,0.00,VWS V13.00,2013-01-22 07:32:00,
2013-01-22 01:37:00,29.0,19.4,30.25,NNE,28,0.0,2.0,67,0.00,,SKC,0.00,VWS V13.00,2013-01-22 07:37:00,
2013-01-22 01:42:00,28.9,19.0,30.25,North,5,1.0,5.0,66,0.00,,SKC,0.00,VWS V13.00,2013-01-22 07:42:00,
2013-01-22 01:47:00,28.9,19.0,30.25,NNE,13,1.0,5.0,66,0.00,,SKC,0.00,VWS V13.00,2013-01-22 07:47:00,
2013-01-22 01:52:00,28.8,18.2,30.25,NE,40,1.0,5.0,64,0.00,,SKC,0.00,VWS V13.00,2013-01-22 07:52:00,
2013-01-22 01:57:00,28.9,18.3,30.25,North,11,2.0,5.0,64,0.00,,SKC,0.00,VWS V13.00,2013-01-22 07:57:00,
2013-01-22 02:02:00,28.9,18.3,30.25,North,5,2.0,2.0,64,0.00,,SKC,0.00,VWS V13.00,2013-01-22 08:02:00,
2013-01-22 02:07:00,28.8,18.2,30.25,North,360,2.0,2.0,64,0.00,,SKC,0.00,VWS V13.00,2013-01-22 08:07:00,
2013-01-22 02:12:00,28.8,18.2,30.25,North,360,1.0,3.0,64,0.00,,SKC,0.00,VWS V13.00,2013-01-22 08:12:00,
2013-01-22 02:17:00,28.8,18.2,30.25,North,355,1.0,3.0,64,0.00,,SKC,0.00,VWS V13.00,2013-01-22 08:17:00,
2013-01-22 02:22:00,28.8,18.2,30.25,North,355,0.0,3.0,64,0.00,,SKC,0.00,VWS V13.00,2013-01-22 08:22:00,
2013-01-22 02:27:00,28.7,18.1,30.25,NNE,14,2.0,3.0,64,0.00,,SKC,0.00,VWS V13.00,2013-01-22 08:27:00,
2013-01-22 02:32:00,28.5,18.2,30.25,NNE,15,1.0,2.0,65,0.00,,SKC,0.00,VWS V13.00,2013-01-22 08:32:00,
2013-01-22 02:37:00,28.4,18.1,30.25,NNE,19,1.0,5.0,65,0.00,,SKC,0.00,VWS V13.00,2013-01-22 08:37:00,
2013-01-22 02:42:00,28.3,18.1,30.25,NNE,13,5.0,5.0,65,0.00,,SKC,0.00,VWS V13.00,2013-01-22 08:42:00,
2013-01-22 02:47:00,28.2,18.3,30.25,North,360,2.0,5.0,66,0.00,,SKC,0.00,VWS V13.00,2013-01-22 08:47:00,
2013-01-22 02:52:00,28.4,18.1,30.26,North,360,2.0,6.0,65,0.00,,SKC,0.00,VWS V13.00,2013-01-22 08:52:00,
2013-01-22 02:57:00,28.4,18.1,30.25,North,11,2.0,6.0,65,0.00,,SKC,0.00,VWS V13.00,2013-01-22 08:57:00,
2013-01-22 03:02:00,28.2,18.3,30.25,NNE,19,1.0,2.0,66,0.00,,SKC,0.00,VWS V13.00,2013-01-22 09:02:00,
2013-01-22 03:07:00,28.1,18.2,30.25,North,360,2.0,5.0,66,0.00,,SKC,0.00,VWS V13.00,2013-01-22 09:07:00,
2013-01-22 03:12:00,28.0,18.1,30.25,North,9,2.0,5.0,66,0.00,,SKC,0.00,VWS V13.00,2013-01-22 09:12:00,
2013-01-22 03:17:00,27.9,18.4,30.25,North,9,1.0,5.0,67,0.00,,SKC,0.00,VWS V13.00,2013-01-22 09:17:00,
2013-01-22 03:22:00,28.0,18.1,30.26,NNW,348,1.0,5.0,66,0.00,,SKC,0.00,VWS V13.00,2013-01-22 09:22:00,
2013-01-22 03:27:00,28.1,18.2,30.25,North,355,4.0,5.0,66,0.00,,SKC,0.00,VWS V13.00,2013-01-22 09:27:00,
2013-01-22 03:32:00,28.2,18.3,30.26,NNW,342,5.0,6.0,66,0.00,,SKC,0.00,VWS V13.00,2013-01-22 09:32:00,
2013-01-22 03:37:00,28.1,18.2,30.26,North,351,2.0,6.0,66,0.00,,SKC,0.00,VWS V13.00,2013-01-22 09:37:00,
2013-01-22 03:42:00,28.1,18.2,30.26,North,360,4.0,7.0,66,0.00,,SKC,0.00,VWS V13.00,2013-01-22 09:42:00,
2013-01-22 03:47:00,28.2,18.3,30.25,North,355,3.0,7.0,66,0.00,,SKC,0.00,VWS V13.00,2013-01-22 09:47:00,
2013-01-22 03:52:00,28.1,18.6,30.26,North,360,4.0,7.0,67,0.00,,SKC,0.00,VWS V13.00,2013-01-22 09:52:00,
2013-01-22 03:57:00,28.0,18.1,30.26,North,355,3.0,7.0,66,0.00,,SKC,0.00,VWS V13.00,2013-01-22 09:57:00,
2013-01-22 04:02:00,28.0,18.1,30.26,North,360,4.0,4.0,66,0.00,,SKC,0.00,VWS V13.00,2013-01-22 10:02:00,
2013-01-22 04:07:00,28.0,18.1,30.27,NNW,348,4.0,6.0,66,0.00,,SKC,0.00,VWS V13.00,2013-01-22 10:07:00,
2013-01-22 04:12:00,28.0,18.1,30.27,NNW,346,2.0,6.0,66,0.00,,SKC,0.00,VWS V13.00,2013-01-22 10:12:00,
2013-01-22 04:17:00,28.0,18.1,30.27,North,5,5.0,6.0,66,0.00,,SKC,0.00,VWS V13.00,2013-01-22 10:17:00,
2013-01-22 04:22:00,27.9,18.0,30.27,NNW,344,2.0,6.0,66,0.00,,SKC,0.00,VWS V13.00,2013-01-22 10:22:00,
2013-01-22 04:27:00,27.9,18.4,30.27,NNW,346,2.0,6.0,67,0.00,,SKC,0.00,VWS V13.00,2013-01-22 10:27:00,
2013-01-22 04:32:00,27.8,18.3,30.27,NNW,344,2.0,2.0,67,0.00,,SKC,0.00,VWS V13.00,2013-01-22 10:32:00,
2013-01-22 04:37:00,27.8,18.6,30.27,NNW,348,4.0,6.0,68,0.00,,SKC,0.00,VWS V13.00,2013-01-22 10:37:00,
2013-01-22 04:42:00,27.8,18.6,30.27,NNW,346,5.0,6.0,68,0.00,,SKC,0.00,VWS V13.00,2013-01-22 10:42:00,
2013-01-22 04:47:00,27.8,18.3,30.27,NNW,338,1.0,6.0,67,0.00,,SKC,0.00,VWS V13.00,2013-01-22 10:47:00,
2013-01-22 04:52:00,27.7,18.5,30.27,NNW,327,2.0,6.0,68,0.00,,SKC,0.00,VWS V13.00,2013-01-22 10:52:00,
2013-01-22 04:57:00,27.6,18.4,30.27,NNW,332,4.0,6.0,68,0.00,,SKC,0.00,VWS V13.00,2013-01-22 10:57:00,
2013-01-22 05:02:00,27.6,18.1,30.28,NNW,344,4.0,6.0,67,0.00,,SKC,0.00,VWS V13.00,2013-01-22 11:02:00,
2013-01-22 05:07:00,27.6,18.1,30.28,NW,325,4.0,6.0,67,0.00,,SKC,0.00,VWS V13.00,2013-01-22 11:07:00,
2013-01-22 05:12:00,27.6,18.1,30.28,NNW,348,4.0,6.0,67,0.00,,SKC,0.00,VWS V13.00,2013-01-22 11:12:00,
2013-01-22 05:17:00,27.5,17.6,30.29,NNW,338,5.0,6.0,66,0.00,,SKC,0.00,VWS V13.00,2013-01-22 11:17:00,
2013-01-22 05:22:00,27.6,17.7,30.28,NNW,342,4.0,8.0,66,0.00,,SKC,0.00,VWS V13.00,2013-01-22 11:22:00,
2013-01-22 05:27:00,27.6,17.7,30.28,NNW,342,3.0,8.0,66,0.00,,SKC,0.00,VWS V13.00,2013-01-22 11:27:00,
2013-01-22 05:32:00,27.5,17.6,30.28,NNW,348,1.0,8.0,66,0.00,,SKC,0.00,VWS V13.00,2013-01-22 11:32:00,
2013-01-22 05:37:00,27.4,17.9,30.29,North,360,5.0,7.0,67,0.00,,SKC,0.00,VWS V13.00,2013-01-22 11:37:00,
2013-01-22 05:42:00,27.4,17.9,30.29,North,350,2.0,7.0,67,0.00,,SKC,0.00,VWS V13.00,2013-01-22 11:42:00,
2013-01-22 05:47:00,27.3,17.8,30.29,North,5,4.0,7.0,67,0.00,,SKC,0.00,VWS V13.00,2013-01-22 11:47:00,
2013-01-22 05:52:00,27.3,18.1,30.30,North,355,2.0,7.0,68,0.00,,SKC,0.00,VWS V13.00,2013-01-22 11:52:00,
2013-01-22 05:57:00,27.1,18.0,30.30,North,5,4.0,7.0,68,0.00,,SKC,0.00,VWS V13.00,2013-01-22 11:57:00,
2013-01-22 06:02:00,27.1,18.0,30.30,North,355,2.0,7.0,68,0.00,,SKC,0.00,VWS V13.00,2013-01-22 12:02:00,
2013-01-22 06:07:00,26.9,18.1,30.30,North,5,4.0,5.0,69,0.00,,SKC,0.00,VWS V13.00,2013-01-22 12:07:00,
2013-01-22 06:12:00,26.9,18.1,30.30,NNW,344,2.0,5.0,69,0.00,,SKC,0.00,VWS V13.00,2013-01-22 12:12:00,
2013-01-22 06:17:00,26.8,18.0,30.30,North,355,3.0,5.0,69,0.00,,SKC,0.00,VWS V13.00,2013-01-22 12:17:00,
2013-01-22 06:22:00,26.7,17.9,30.31,North,355,1.0,5.0,69,0.00,,SKC,0.00,VWS V13.00,2013-01-22 12:22:00,
2013-01-22 06:27:00,26.6,17.8,30.31,North,355,3.0,5.0,69,0.00,,SKC,0.00,VWS V13.00,2013-01-22 12:27:00,
2013-01-22 06:32:00,26.6,17.8,30.31,North,360,4.0,4.0,69,0.00,,SKC,0.00,VWS V13.00,2013-01-22 12:32:00,
2013-01-22 06:37:00,26.5,18.0,30.32,North,360,2.0,5.0,70,0.00,,SKC,0.00,VWS V13.00,2013-01-22 12:37:00,
2013-01-22 06:42:00,26.2,17.8,30.32,NNE,30,1.0,5.0,70,0.00,,SKC,0.00,VWS V13.00,2013-01-22 12:42:00,
2013-01-22 06:47:00,26.0,18.5,30.32,NNE,30,0.0,5.0,73,0.00,,SKC,0.00,VWS V13.00,2013-01-22 12:47:00,
2013-01-22 06:52:00,25.7,18.6,30.32,NNE,18,0.0,5.0,74,0.00,,SKC,0.00,VWS V13.00,2013-01-22 12:52:00,
2013-01-22 06:57:00,25.6,18.5,30.32,NNE,24,1.0,5.0,74,0.00,,SKC,0.00,VWS V13.00,2013-01-22 12:57:00,
2013-01-22 07:02:00,25.6,18.2,30.33,NNE,13,4.0,4.0,73,0.00,,SKC,0.00,VWS V13.00,2013-01-22 13:02:00,
2013-01-22 07:07:00,25.7,18.3,30.33,North,5,5.0,6.0,73,0.00,,SKC,0.00,VWS V13.00,2013-01-22 13:07:00,
2013-01-22 07:12:00,25.9,18.5,30.33,NNE,32,1.0,6.0,73,0.00,,SKC,0.00,VWS V13.00,2013-01-22 13:12:00,
2013-01-22 07:17:00,25.9,18.5,30.33,NNE,21,2.0,6.0,73,0.00,,SKC,0.00,VWS V13.00,2013-01-22 13:17:00,
2013-01-22 07:22:00,26.1,19.0,30.33,NNE,26,2.0,6.0,74,0.00,,SKC,0.00,VWS V13.00,2013-01-22 13:22:00,
2013-01-22 07:27:00,26.5,18.7,30.33,NNE,19,4.0,6.0,72,0.00,,SKC,0.00,VWS V13.00,2013-01-22 13:27:00,
2013-01-22 07:32:00,27.0,18.9,30.33,NNE,21,4.0,4.0,71,0.00,,SKC,0.00,VWS V13.00,2013-01-22 13:32:00,
2013-01-22 07:37:00,27.4,18.9,30.33,NNE,31,1.0,7.0,70,0.00,,SKC,0.00,VWS V13.00,2013-01-22 13:37:00,
2013-01-22 07:42:00,27.8,18.6,30.33,NE,42,7.0,7.0,68,0.00,,SKC,0.00,VWS V13.00,2013-01-22 13:42:00,
2013-01-22 07:47:00,28.0,18.8,30.34,NNE,28,2.0,7.0,68,0.00,,SKC,0.00,VWS V13.00,2013-01-22 13:47:00,
2013-01-22 07:52:00,28.2,18.3,30.34,NNE,26,3.0,8.0,66,0.00,,SKC,0.00,VWS V13.00,2013-01-22 13:52:00,
2013-01-22 07:57:00,28.4,18.1,30.35,NE,53,5.0,8.0,65,0.00,,SKC,0.00,VWS V13.00,2013-01-22 13:57:00,
2013-01-22 08:02:00,28.7,18.8,30.35,North,360,4.0,7.0,66,0.00,,SKC,0.00,VWS V13.00,2013-01-22 14:02:00,
2013-01-22 08:07:00,28.7,18.8,30.35,NE,48,7.0,8.0,66,0.00,,SKC,0.00,VWS V13.00,2013-01-22 14:07:00,
2013-01-22 08:12:00,28.9,18.3,30.35,North,351,6.0,9.0,64,0.00,,SKC,0.00,VWS V13.00,2013-01-22 14:12:00,
2013-01-22 08:17:00,29.1,18.1,30.35,NNE,19,5.0,9.0,63,0.00,,SKC,0.00,VWS V13.00,2013-01-22 14:17:00,
2013-01-22 08:22:00,29.3,18.3,30.36,NNE,15,6.0,11.0,63,0.00,,SKC,0.00,VWS V13.00,2013-01-22 14:22:00,
2013-01-22 08:27:00,29.5,18.5,30.36,NNE,17,7.0,11.0,63,0.00,,SKC,0.00,VWS V13.00,2013-01-22 14:27:00,
2013-01-22 08:32:00,29.7,17.5,30.37,NNE,19,8.0,9.0,60,0.00,,SKC,0.00,VWS V13.00,2013-01-22 14:32:00,
2013-01-22 08:37:00,29.9,17.7,30.37,North,5,5.0,10.0,60,0.00,,SKC,0.00,VWS V13.00,2013-01-22 14:37:00,
2013-01-22 08:42:00,29.9,16.5,30.37,NE,36,7.0,10.0,57,0.00,,SKC,0.00,VWS V13.00,2013-01-22 14:42:00,
2013-01-22 08:47:00,30.2,17.6,30.37,North,355,5.0,10.0,59,0.00,,SKC,0.00,VWS V13.00,2013-01-22 14:47:00,
2013-01-22 08:52:00,30.4,15.8,30.38,North,355,7.0,11.0,54,0.00,,SKC,0.00,VWS V13.00,2013-01-22 14:52:00,
2013-01-22 08:57:00,30.6,16.4,30.37,North,360,11.0,11.0,55,0.00,,SKC,0.00,VWS V13.00,2013-01-22 14:57:00,
2013-01-22 09:02:00,30.5,15.4,30.38,NNE,15,7.0,9.0,53,0.00,,SKC,0.00,VWS V13.00,2013-01-22 15:02:00,
2013-01-22 09:07:00,30.6,15.1,30.38,NE,36,6.0,10.0,52,0.00,,SKC,0.00,VWS V13.00,2013-01-22 15:07:00,
2013-01-22 09:12:00,31.2,16.1,30.38,NNW,342,6.0,10.0,53,0.00,,SKC,0.00,VWS V13.00,2013-01-22 15:12:00,
2013-01-22 09:17:00,31.4,15.4,30.38,NNW,335,5.0,10.0,51,0.00,,SKC,0.00,VWS V13.00,2013-01-22 15:17:00,
2013-01-22 09:22:00,31.6,15.1,30.38,North,360,6.0,10.0,50,0.00,,SKC,0.00,VWS V13.00,2013-01-22 15:22:00,
2013-01-22 09:27:00,31.7,15.2,30.39,NNW,340,5.0,11.0,50,0.00,,SKC,0.00,VWS V13.00,2013-01-22 15:27:00,
2013-01-22 09:32:00,31.7,15.7,30.39,North,350,4.0,5.0,51,0.00,,SKC,0.00,VWS V13.00,2013-01-22 15:32:00,
2013-01-22 09:37:00,31.9,15.8,30.39,North,9,8.0,11.0,51,0.00,,SKC,0.00,VWS V13.00,2013-01-22 15:37:00,
2013-01-22 09:42:00,32.1,16.5,30.39,North,11,7.0,11.0,52,0.00,,SKC,0.00,VWS V13.00,2013-01-22 15:42:00,
2013-01-22 09:47:00,32.2,15.7,30.39,North,5,6.0,12.0,50,0.00,,SKC,0.00,VWS V13.00,2013-01-22 15:47:00,
2013-01-22 09:52:00,32.6,16.9,30.39,NE,41,6.0,12.0,52,0.00,,SKC,0.00,VWS V13.00,2013-01-22 15:52:00,
2013-01-22 09:57:00,32.7,16.6,30.39,North,11,6.0,12.0,51,0.00,,SKC,0.00,VWS V13.00,2013-01-22 15:57:00,
2013-01-22 10:02:00,33.0,16.4,30.39,NNE,24,6.0,8.0,50,0.00,,SKC,0.00,VWS V13.00,2013-01-22 16:02:00,
2013-01-22 10:07:00,33.5,17.3,30.39,NNW,344,7.0,10.0,51,0.00,,SKC,0.00,VWS V13.00,2013-01-22 16:07:00,
2013-01-22 10:12:00,33.6,16.5,30.39,North,355,6.0,10.0,49,0.00,,SKC,0.00,VWS V13.00,2013-01-22 16:12:00,
2013-01-22 10:17:00,33.8,17.1,30.39,NNW,346,7.0,11.0,50,0.00,,SKC,0.00,VWS V13.00,2013-01-22 16:17:00,
2013-01-22 10:22:00,33.8,16.2,30.39,NNE,28,6.0,11.0,48,0.00,,SKC,0.00,VWS V13.00,2013-01-22 16:22:00,
2013-01-22 10:27:00,33.9,15.8,30.39,NNE,29,3.0,11.0,47,0.00,,SKC,0.00,VWS V13.00,2013-01-22 16:27:00,
2013-01-22 10:32:00,34.0,17.8,30.39,ENE,57,2.0,3.0,51,0.00,,SKC,0.00,VWS V13.00,2013-01-22 16:32:00,
2013-01-22 10:37:00,34.3,18.1,30.39,ESE,105,0.0,6.0,51,0.00,,SKC,0.00,VWS V13.00,2013-01-22 16:37:00,
2013-01-22 10:42:00,35.1,18.4,30.38,NNW,347,5.0,8.0,50,0.00,,SKC,0.00,VWS V13.00,2013-01-22 16:42:00,
2013-01-22 10:47:00,35.2,18.0,30.38,North,360,2.0,8.0,49,0.00,,SKC,0.00,VWS V13.00,2013-01-22 16:47:00,
2013-01-22 10:52:00,35.5,17.3,30.38,North,5,6.0,18.0,47,0.00,,SKC,0.00,VWS V13.00,2013-01-22 16:52:00,
2013-01-22 10:57:00,35.5,16.3,30.38,NNW,329,7.0,18.0,45,0.00,,SKC,0.00,VWS V13.00,2013-01-22 16:57:00,
2013-01-22 11:02:00,35.6,16.4,30.38,NNE,28,7.0,8.0,45,0.00,,SKC,0.00,VWS V13.00,2013-01-22 17:02:00,
2013-01-22 11:07:00,35.8,16.5,30.38,NE,37,6.0,11.0,45,0.00,,SKC,0.00,VWS V13.00,2013-01-22 17:07:00,
2013-01-22 11:12:00,36.1,17.3,30.37,NNE,33,7.0,11.0,46,0.00,,SKC,0.00,VWS V13.00,2013-01-22 17:12:00,
2013-01-22 11:17:00,36.0,16.7,30.37,West,279,5.0,11.0,45,0.00,,SKC,0.00,VWS V13.00,2013-01-22 17:17:00,
2013-01-22 11:22:00,36.6,16.8,30.37,North,5,4.0,11.0,44,0.00,,SKC,0.00,VWS V13.00,2013-01-22 17:22:00,
2013-01-22 11:27:00,36.6,15.7,30.37,NNE,17,9.0,12.0,42,0.00,,SKC,0.00,VWS V13.00,2013-01-22 17:27:00,
2013-01-22 11:32:00,36.7,16.3,30.37,North,355,6.0,7.0,43,0.00,,SKC,0.00,VWS V13.00,2013-01-22 17:32:00,
2013-01-22 11:38:00,36.7,16.9,30.37,North,349,5.0,12.0,44,0.00,,SKC,0.00,VWS V13.00,2013-01-22 17:38:00,
2013-01-22 11:43:00,36.9,16.5,30.36,North,5,7.0,12.0,43,0.00,,SKC,0.00,VWS V13.00,2013-01-22 17:43:00,
2013-01-22 11:48:00,37.1,16.7,30.36,NNE,13,6.0,12.0,43,0.00,,SKC,0.00,VWS V13.00,2013-01-22 17:48:00,
2013-01-22 11:53:00,36.9,16.0,30.35,NE,41,5.0,12.0,42,0.00,,SKC,0.00,VWS V13.00,2013-01-22 17:53:00,
2013-01-22 11:58:00,37.4,17.5,30.35,NNE,28,5.0,12.0,44,0.00,,SKC,0.00,VWS V13.00,2013-01-22 17:58:00,
2013-01-22 12:03:00,37.8,17.3,30.35,NNE,13,5.0,10.0,43,0.00,,SKC,0.00,VWS V13.00,2013-01-22 18:03:00,
2013-01-22 12:08:00,37.9,18.0,30.35,NNW,340,8.0,10.0,44,0.00,,SKC,0.00,VWS V13.00,2013-01-22 18:08:00,
2013-01-22 12:13:00,37.8,16.8,30.35,North,5,5.0,12.0,42,0.00,,SKC,0.00,VWS V13.00,2013-01-22 18:13:00,
2013-01-22 12:18:00,37.9,17.4,30.34,NNE,12,9.0,12.0,43,0.00,,SKC,0.00,VWS V13.00,2013-01-22 18:18:00,
2013-01-22 12:23:00,38.2,18.2,30.34,NW,313,1.0,12.0,44,0.00,,SKC,0.00,VWS V13.00,2013-01-22 18:23:00,
2013-01-22 12:28:00,38.2,17.1,30.34,NW,308,1.0,12.0,42,0.00,,SKC,0.00,VWS V13.00,2013-01-22 18:28:00,
2013-01-22 12:33:00,38.7,17.6,30.33,West,272,4.0,6.0,42,0.00,,SKC,0.00,VWS V13.00,2013-01-22 18:33:00,
2013-01-22 12:38:00,38.8,17.7,30.33,NW,322,7.0,8.0,42,0.00,,SKC,0.00,VWS V13.00,2013-01-22 18:38:00,
2013-01-22 12:43:00,38.9,18.3,30.33,NW,321,5.0,8.0,43,0.00,,SKC,0.00,VWS V13.00,2013-01-22 18:43:00,
2013-01-22 12:48:00,39.1,18.0,30.32,WNW,300,8.0,13.0,42,0.00,,SKC,0.00,VWS V13.00,2013-01-22 18:48:00,
2013-01-22 12:53:00,38.9,18.3,30.32,NW,321,9.0,13.0,43,0.00,,SKC,0.00,VWS V13.00,2013-01-22 18:53:00,
2013-01-22 12:58:00,39.0,17.9,30.32,NW,325,8.0,13.0,42,0.00,,SKC,0.00,VWS V13.00,2013-01-22 18:58:00,
2013-01-22 13:03:00,39.1,16.8,30.32,NNW,348,4.0,8.0,40,0.00,,SKC,0.00,VWS V13.00,2013-01-22 19:03:00,
2013-01-22 13:08:00,39.2,18.0,30.32,NW,325,3.0,10.0,42,0.00,,SKC,0.00,VWS V13.00,2013-01-22 19:08:00,
2013-01-22 13:13:00,39.2,18.6,30.32,NW,322,7.0,13.0,43,0.00,,SKC,0.00,VWS V13.00,2013-01-22 19:13:00,
2013-01-22 13:18:00,39.2,18.0,30.32,North,355,7.0,13.0,42,0.00,,SKC,0.00,VWS V13.00,2013-01-22 19:18:00,
2013-01-22 13:23:00,39.6,19.0,30.32,WNW,297,9.0,14.0,43,0.00,,SKC,0.00,VWS V13.00,2013-01-22 19:23:00,
2013-01-22 13:28:00,39.8,18.0,30.32,WNW,292,5.0,14.0,41,0.00,,SKC,0.00,VWS V13.00,2013-01-22 19:28:00,
2013-01-22 13:33:00,39.6,17.9,30.32,WNW,292,6.0,8.0,41,0.00,,SKC,0.00,VWS V13.00,2013-01-22 19:33:00,
2013-01-22 13:38:00,39.8,18.0,30.32,NW,326,8.0,12.0,41,0.00,,SKC,0.00,VWS V13.00,2013-01-22 19:38:00,
2013-01-22 13:43:00,39.7,18.5,30.32,WNW,286,5.0,12.0,42,0.00,,SKC,0.00,VWS V13.00,2013-01-22 19:43:00,
2013-01-22 13:48:00,39.8,18.0,30.32,NNW,329,9.0,13.0,41,0.00,,SKC,0.00,VWS V13.00,2013-01-22 19:48:00,
2013-01-22 13:53:00,39.7,18.0,30.32,WNW,283,4.0,13.0,41,0.00,,SKC,0.00,VWS V13.00,2013-01-22 19:53:00,
2013-01-22 13:58:00,39.8,17.5,30.32,NW,316,8.0,13.0,40,0.00,,SKC,0.00,VWS V13.00,2013-01-22 19:58:00,
2013-01-22 14:03:00,39.9,17.0,30.32,NW,324,4.0,6.0,39,0.00,,SKC,0.00,VWS V13.00,2013-01-22 20:03:00,
2013-01-22 14:08:00,39.8,17.5,30.32,WNW,298,9.0,13.0,40,0.00,,SKC,0.00,VWS V13.00,2013-01-22 20:08:00,
2013-01-22 14:13:00,39.6,17.3,30.32,West,276,8.0,16.0,40,0.00,,SKC,0.00,VWS V13.00,2013-01-22 20:13:00,
2013-01-22 14:18:00,39.9,18.1,30.32,WNW,302,6.0,16.0,41,0.00,,SKC,0.00,VWS V13.00,2013-01-22 20:18:00,
2013-01-22 14:23:00,40.5,17.5,30.32,NNW,346,4.0,16.0,39,0.00,,SKC,0.00,VWS V13.00,2013-01-22 20:23:00,
2013-01-22 14:28:00,40.5,18.1,30.32,WNW,299,10.0,16.0,40,0.00,,SKC,0.00,VWS V13.00,2013-01-22 20:28:00,
2013-01-22 14:33:00,40.6,17.6,30.32,North,360,10.0,10.0,39,0.00,,SKC,0.00,VWS V13.00,2013-01-22 20:33:00,
2013-01-22 14:38:00,40.4,18.0,30.32,WNW,301,6.0,11.0,40,0.00,,SKC,0.00,VWS V13.00,2013-01-22 20:38:00,
2013-01-22 14:43:00,40.2,16.0,30.32,North,355,7.0,16.0,37,0.00,,SKC,0.00,VWS V13.00,2013-01-22 20:43:00,
2013-01-22 14:48:00,40.3,17.3,30.32,NW,319,12.0,16.0,39,0.00,,SKC,0.00,VWS V13.00,2013-01-22 20:48:00,
2013-01-22 14:53:00,40.4,17.4,30.32,NNW,339,8.0,16.0,39,0.00,,SKC,0.00,VWS V13.00,2013-01-22 20:53:00,
2013-01-22 14:58:00,40.3,16.7,30.33,NNW,344,5.0,16.0,38,0.00,,SKC,0.00,VWS V13.00,2013-01-22 20:58:00,
2013-01-22 15:03:00,40.2,17.2,30.32,North,350,8.0,10.0,39,0.00,,SKC,0.00,VWS V13.00,2013-01-22 21:03:00,
2013-01-22 15:08:00,40.2,17.2,30.32,NNW,332,11.0,12.0,39,0.00,,SKC,0.00,VWS V13.00,2013-01-22 21:08:00,
2013-01-22 15:13:00,40.0,16.5,30.33,NW,322,7.0,12.0,38,0.00,,SKC,0.00,VWS V13.00,2013-01-22 21:13:00,
2013-01-22 15:18:00,40.0,16.5,30.32,NW,319,9.0,12.0,38,0.00,,SKC,0.00,VWS V13.00,2013-01-22 21:18:00,
2013-01-22 15:23:00,40.1,17.1,30.33,WNW,298,5.0,12.0,39,0.00,,SKC,0.00,VWS V13.00,2013-01-22 21:23:00,
2013-01-22 15:28:00,40.1,17.1,30.33,NNW,333,6.0,13.0,39,0.00,,SKC,0.00,VWS V13.00,2013-01-22 21:28:00,
2013-01-22 15:31:00,40.1,17.1,30.33,WNW,300,8.0,13.0,39,0.00,,SKC,0.00,VWS V13.00,2013-01-22 21:31:00,
2013-01-22 15:36:00,40.2,17.2,30.33,West,281,6.0,8.0,39,0.00,,SKC,0.00,VWS V13.00,2013-01-22 21:36:00,
2013-01-22 15:41:00,40.2,17.2,30.33,NNW,341,9.0,12.0,39,0.00,,SKC,0.00,VWS V13.00,2013-01-22 21:41:00,
2013-01-22 15:46:00,39.9,17.0,30.33,WNW,287,6.0,12.0,39,0.00,,SKC,0.00,VWS V13.00,2013-01-22 21:46:00,
2013-01-22 15:51:00,39.5,17.2,30.33,NW,325,6.0,12.0,40,0.00,,SKC,0.00,VWS V13.00,2013-01-22 21:51:00,
2013-01-22 15:56:00,39.5,17.2,30.33,WNW,290,6.0,12.0,40,0.00,,SKC,0.00,VWS V13.00,2013-01-22 21:56:00,
2013-01-22 16:01:00,39.1,16.8,30.33,WNW,302,9.0,12.0,40,0.00,,SKC,0.00,VWS V13.00,2013-01-22 22:01:00,
2013-01-22 16:06:00,39.0,16.7,30.34,WNW,286,6.0,11.0,40,0.00,,SKC,0.00,VWS V13.00,2013-01-22 22:06:00,
2013-01-22 16:11:00,38.7,16.5,30.34,NNW,333,8.0,11.0,40,0.00,,SKC,0.00,VWS V13.00,2013-01-22 22:11:00,
2013-01-22 16:16:00,38.4,16.8,30.34,NW,326,6.0,11.0,41,0.00,,SKC,0.00,VWS V13.00,2013-01-22 22:16:00,
2013-01-22 16:21:00,38.1,16.5,30.34,NW,322,8.0,11.0,41,0.00,,SKC,0.00,VWS V13.00,2013-01-22 22:21:00,
2013-01-22 16:26:00,37.9,16.9,30.34,NNW,332,2.0,11.0,42,0.00,,SKC,0.00,VWS V13.00,2013-01-22 22:26:00,
2013-01-22 16:31:00,37.8,16.8,30.34,NNW,341,2.0,11.0,42,0.00,,SKC,0.00,VWS V13.00,2013-01-22 22:31:00,
2013-01-22 16:36:00,37.6,17.1,30.34,NNW,337,6.0,9.0,43,0.00,,SKC,0.00,VWS V13.00,2013-01-22 22:36:00,
2013-01-22 16:41:00,37.3,16.9,30.34,WNW,303,5.0,10.0,43,0.00,,SKC,0.00,VWS V13.00,2013-01-22 22:41:00,
2013-01-22 16:46:00,37.0,16.6,30.34,NNW,346,4.0,10.0,43,0.00,,SKC,0.00,VWS V13.00,2013-01-22 22:46:00,
2013-01-22 16:51:00,36.8,16.4,30.34,NNW,346,6.0,10.0,43,0.00,,SKC,0.00,VWS V13.00,2013-01-22 22:51:00,
2013-01-22 16:56:00,36.6,16.8,30.34,NW,324,4.0,10.0,44,0.00,,SKC,0.00,VWS V13.00,2013-01-22 22:56:00,
2013-01-22 17:01:00,36.3,17.0,30.34,NNW,336,2.0,10.0,45,0.00,,SKC,0.00,VWS V13.00,2013-01-22 23:01:00,
2013-01-22 17:05:00,36.0,17.2,30.35,NW,323,2.0,5.0,46,0.00,,SKC,0.00,VWS V13.00,2013-01-22 23:05:00,
2013-01-22 17:10:00,35.7,17.0,30.35,NW,314,2.0,5.0,46,0.00,,SKC,0.00,VWS V13.00,2013-01-22 23:10:00,
2013-01-22 17:15:00,35.4,17.2,30.35,NW,306,1.0,5.0,47,0.00,,SKC,0.00,VWS V13.00,2013-01-22 23:15:00,
2013-01-22 17:20:00,35.1,17.4,30.35,NW,318,2.0,5.0,48,0.00,,SKC,0.00,VWS V13.00,2013-01-22 23:20:00,
2013-01-22 17:25:00,35.0,17.3,30.36,NNW,344,1.0,6.0,48,0.00,,SKC,0.00,VWS V13.00,2013-01-22 23:25:00,
2013-01-22 17:30:00,34.8,17.1,30.36,NNW,336,2.0,6.0,48,0.00,,SKC,0.00,VWS V13.00,2013-01-22 23:30:00,
2013-01-22 17:35:00,34.7,17.0,30.36,North,5,4.0,6.0,48,0.00,,SKC,0.00,VWS V13.00,2013-01-22 23:35:00,
2013-01-22 17:40:00,34.6,17.4,30.36,NW,319,1.0,6.0,49,0.00,,SKC,0.00,VWS V13.00,2013-01-22 23:40:00,
2013-01-22 17:45:00,34.4,17.2,30.36,NW,308,4.0,6.0,49,0.00,,SKC,0.00,VWS V13.00,2013-01-22 23:45:00,
2013-01-22 17:50:00,34.5,17.3,30.35,NNW,331,1.0,6.0,49,0.00,,SKC,0.00,VWS V13.00,2013-01-22 23:50:00,
2013-01-22 17:55:00,34.4,17.7,30.36,NNW,344,5.0,6.0,50,0.00,,SKC,0.00,VWS V13.00,2013-01-22 23:55:00,
2013-01-22 18:00:00,34.4,18.2,30.36,NNW,329,2.0,6.0,51,0.00,,SKC,0.00,VWS V13.00,2013-01-23 00:00:00,
2013-01-22 18:05:00,34.5,18.7,30.36,NNW,329,1.0,2.0,52,0.00,,SKC,0.00,VWS V13.00,2013-01-23 00:05:00,
2013-01-22 18:10:00,34.8,19.0,30.36,NW,318,2.0,5.0,52,0.00,,SKC,0.00,VWS V13.00,2013-01-23 00:10:00,
2013-01-22 18:15:00,35.0,19.2,30.36,NNW,328,2.0,5.0,52,0.00,,SKC,0.00,VWS V13.00,2013-01-23 00:15:00,
2013-01-22 18:20:00,35.0,19.2,30.36,NNW,328,0.0,5.0,52,0.00,,SKC,0.00,VWS V13.00,2013-01-23 00:20:00,
2013-01-22 18:25:00,35.1,19.3,30.36,NNW,328,0.0,5.0,52,0.00,,SKC,0.00,VWS V13.00,2013-01-23 00:25:00,
2013-01-22 18:30:00,35.1,19.3,30.36,NNW,328,0.0,5.0,52,0.00,,SKC,0.00,VWS V13.00,2013-01-23 00:30:00,
2013-01-22 18:35:00,35.0,18.7,30.35,NNW,328,0.0,0.0,51,0.00,,SKC,0.00,VWS V13.00,2013-01-23 00:35:00,
2013-01-22 18:40:00,35.0,19.6,30.35,NNW,328,0.0,0.0,53,0.00,,SKC,0.00,VWS V13.00,2013-01-23 00:40:00,
2013-01-22 18:45:00,35.0,19.6,30.36,NNW,328,0.0,1.0,53,0.00,,SKC,0.00,VWS V13.00,2013-01-23 00:45:00,
2013-01-22 18:50:00,35.0,20.5,30.35,NNW,328,1.0,1.0,55,0.00,,SKC,0.00,VWS V13.00,2013-01-23 00:50:00,
2013-01-22 18:55:00,34.9,20.4,30.35,NNW,331,1.0,2.0,55,0.00,,SKC,0.00,VWS V13.00,2013-01-23 00:55:00,
2013-01-22 19:00:00,34.8,20.3,30.36,NNW,331,1.0,2.0,55,0.00,,SKC,0.00,VWS V13.00,2013-01-23 01:00:00,
2013-01-22 19:05:00,34.7,19.3,30.35,North,355,2.0,3.0,53,0.00,,SKC,0.00,VWS V13.00,2013-01-23 01:05:00,
2013-01-22 19:10:00,34.6,20.1,30.35,North,5,1.0,3.0,55,0.00,,SKC,0.00,VWS V13.00,2013-01-23 01:10:00,
2013-01-22 19:15:00,34.6,20.1,30.35,North,5,0.0,3.0,55,0.00,,SKC,0.00,VWS V13.00,2013-01-23 01:15:00,
2013-01-22 19:20:00,34.5,20.4,30.35,North,5,1.0,3.0,56,0.00,,SKC,0.00,VWS V13.00,2013-01-23 01:20:00,
2013-01-22 19:25:00,34.6,20.1,30.35,NNE,13,1.0,3.0,55,0.00,,SKC,0.00,VWS V13.00,2013-01-23 01:25:00,
2013-01-22 19:30:00,34.6,20.5,30.35,NNE,26,1.0,3.0,56,0.00,,SKC,0.00,VWS V13.00,2013-01-23 01:30:00,
2013-01-22 19:35:00,34.7,20.2,30.35,NE,36,1.0,4.0,55,0.00,,SKC,0.00,VWS V13.00,2013-01-23 01:35:00,
2013-01-22 19:40:00,34.7,20.2,30.35,NNE,32,2.0,5.0,55,0.00,,SKC,0.00,VWS V13.00,2013-01-23 01:40:00,
2013-01-22 19:45:00,34.8,20.7,30.35,NE,34,4.0,5.0,56,0.00,,SKC,0.00,VWS V13.00,2013-01-23 01:45:00,
2013-01-22 19:50:00,34.8,20.7,30.35,NE,40,2.0,6.0,56,0.00,,SKC,0.00,VWS V13.00,2013-01-23 01:50:00,
2013-01-22 19:55:00,34.8,20.7,30.35,NNE,30,1.0,6.0,56,0.00,,SKC,0.00,VWS V13.00,2013-01-23 01:55:00,
2013-01-22 20:00:00,34.9,20.8,30.35,NNE,30,2.0,6.0,56,0.00,,SKC,0.00,VWS V13.00,2013-01-23 02:00:00,
2013-01-22 20:05:00,34.9,20.8,30.34,NNE,20,2.0,2.0,56,0.00,,SKC,0.00,VWS V13.00,2013-01-23 02:05:00,
2013-01-22 20:10:00,34.9,21.2,30.34,NNE,12,1.0,4.0,57,0.00,,SKC,0.00,VWS V13.00,2013-01-23 02:10:00,
2013-01-22 20:15:00,34.8,21.1,30.34,NNE,17,2.0,4.0,57,0.00,,SKC,0.00,VWS V13.00,2013-01-23 02:15:00,
2013-01-22 20:20:00,34.8,20.7,30.34,NNE,17,0.0,4.0,56,0.00,,SKC,0.00,VWS V13.00,2013-01-23 02:20:00,
2013-01-22 20:25:00,34.7,20.6,30.34,NNE,17,0.0,4.0,56,0.00,,SKC,0.00,VWS V13.00,2013-01-23 02:25:00,
2013-01-22 20:30:00,34.7,20.2,30.34,NNE,30,0.0,4.0,55,0.00,,SKC,0.00,VWS V13.00,2013-01-23 02:30:00,
2013-01-22 20:35:00,34.8,20.7,30.34,NNE,30,0.0,2.0,56,0.00,,SKC,0.00,VWS V13.00,2013-01-23 02:35:00,
2013-01-22 20:40:00,34.8,20.7,30.34,NNE,30,0.0,2.0,56,0.00,,SKC,0.00,VWS V13.00,2013-01-23 02:40:00,
2013-01-22 20:45:00,34.7,21.9,30.34,NNE,30,0.0,2.0,59,0.00,,SKC,0.00,VWS V13.00,2013-01-23 02:45:00,
2013-01-22 20:50:00,34.5,21.7,30.34,NNE,30,0.0,2.0,59,0.00,,SKC,0.00,VWS V13.00,2013-01-23 02:50:00,
2013-01-22 20:55:00,34.4,21.2,30.34,NE,47,1.0,2.0,58,0.00,,SKC,0.00,VWS V13.00,2013-01-23 02:55:00,
2013-01-22 21:00:00,34.2,21.4,30.34,NE,47,1.0,2.0,59,0.00,,SKC,0.00,VWS V13.00,2013-01-23 03:00:00,
2013-01-22 21:05:00,33.9,20.7,30.34,NE,47,1.0,2.0,58,0.00,,SKC,0.00,VWS V13.00,2013-01-23 03:05:00,
2013-01-22 21:10:00,33.8,20.6,30.34,NE,47,0.0,2.0,58,0.00,,SKC,0.00,VWS V13.00,2013-01-23 03:10:00,
2013-01-22 21:15:00,33.5,20.7,30.33,NE,47,0.0,2.0,59,0.00,,SKC,0.00,VWS V13.00,2013-01-23 03:15:00,
2013-01-22 21:20:00,33.2,20.4,30.34,NE,47,0.0,2.0,59,0.00,,SKC,0.00,VWS V13.00,2013-01-23 03:20:00,
2013-01-22 21:25:00,32.9,20.2,30.34,NE,47,0.0,2.0,59,0.00,,SKC,0.00,VWS V13.00,2013-01-23 03:25:00,
2013-01-22 21:30:00,32.6,19.9,30.34,NE,47,0.0,2.0,59,0.00,,SKC,0.00,VWS V13.00,2013-01-23 03:30:00,
2013-01-22 21:35:00,32.4,20.1,30.34,NE,47,0.0,0.0,60,0.00,,SKC,0.00,VWS V13.00,2013-01-23 03:35:00,
2013-01-22 21:40:00,32.3,21.1,30.34,NE,47,0.0,0.0,63,0.00,,SKC,0.00,VWS V13.00,2013-01-23 03:40:00,
2013-01-22 21:45:00,32.3,21.1,30.35,NE,47,0.0,0.0,63,0.00,,SKC,0.00,VWS V13.00,2013-01-23 03:45:00,
2013-01-22 21:50:00,32.3,20.8,30.34,NE,47,0.0,0.0,62,0.00,,SKC,0.00,VWS V13.00,2013-01-23 03:50:00,
2013-01-22 21:55:00,32.3,21.5,30.34,NE,47,0.0,0.0,64,0.00,,SKC,0.00,VWS V13.00,2013-01-23 03:55:00,
2013-01-22 22:00:00,32.3,21.1,30.35,NE,47,0.0,0.0,63,0.00,,SKC,0.00,VWS V13.00,2013-01-23 04:00:00,
2013-01-22 22:05:00,32.3,20.8,30.34,NE,47,0.0,0.0,62,0.00,,SKC,0.00,VWS V13.00,2013-01-23 04:05:00,
2013-01-22 22:10:00,32.3,21.1,30.34,NE,47,0.0,0.0,63,0.00,,SKC,0.00,VWS V13.00,2013-01-23 04:10:00,
2013-01-22 22:15:00,32.3,20.8,30.34,NE,47,0.0,0.0,62,0.00,,SKC,0.00,VWS V13.00,2013-01-23 04:15:00,
2013-01-22 22:20:00,32.5,20.9,30.34,NE,47,0.0,0.0,62,0.00,,SKC,0.00,VWS V13.00,2013-01-23 04:20:00,
2013-01-22 22:25:00,32.5,21.7,30.34,NE,47,0.0,0.0,64,0.00,,SKC,0.00,VWS V13.00,2013-01-23 04:25:00,
2013-01-22 22:30:00,32.4,20.9,30.34,NE,47,0.0,0.0,62,0.00,,SKC,0.00,VWS V13.00,2013-01-23 04:30:00,
2013-01-22 22:35:00,32.4,20.5,30.34,NE,47,0.0,0.0,61,0.00,,SKC,0.00,VWS V13.00,2013-01-23 04:35:00,
2013-01-22 22:40:00,32.4,21.2,30.34,NE,47,0.0,0.0,63,0.00,,SKC,0.00,VWS V13.00,2013-01-23 04:40:00,
2013-01-22 22:45:00,32.4,20.5,30.34,NE,47,0.0,0.0,61,0.00,,SKC,0.00,VWS V13.00,2013-01-23 04:45:00,
2013-01-22 22:50:00,32.3,20.0,30.34,NE,47,0.0,0.0,60,0.00,,SKC,0.00,VWS V13.00,2013-01-23 04:50:00,
2013-01-22 22:55:00,32.3,20.0,30.34,NE,47,0.0,0.0,60,0.00,,SKC,0.00,VWS V13.00,2013-01-23 04:55:00,
2013-01-22 23:00:00,32.4,20.9,30.35,NE,47,0.0,0.0,62,0.00,,SKC,0.00,VWS V13.00,2013-01-23 05:00:00,
2013-01-22 23:01:00,32.5,20.9,30.35,NE,47,0.0,0.0,62,0.00,,SKC,0.00,VWS V13.00,2013-01-23 05:01:00,
2013-01-22 23:03:00,32.5,21.3,30.34,NE,47,0.0,0.0,63,0.00,,SKC,0.00,VWS V13.00,2013-01-23 05:03:00,
2013-01-22 23:08:00,32.5,20.9,30.34,NE,47,0.0,0.0,62,0.00,,SKC,0.00,VWS V13.00,2013-01-23 05:08:00,
2013-01-22 23:13:00,32.6,20.7,30.34,NE,47,0.0,0.0,61,0.00,,SKC,0.00,VWS V13.00,2013-01-23 05:13:00,
2013-01-22 23:18:00,32.6,21.0,30.34,NE,47,0.0,0.0,62,0.00,,SKC,0.00,VWS V13.00,2013-01-23 05:18:00,
2013-01-22 23:23:00,32.7,21.5,30.34,NE,47,0.0,0.0,63,0.00,,SKC,0.00,VWS V13.00,2013-01-23 05:23:00,
2013-01-22 23:28:00,32.9,24.2,30.34,NE,47,0.0,0.0,70,0.00,,SKC,0.00,VWS V13.00,2013-01-23 05:28:00,
2013-01-22 23:33:00,32.9,22.8,30.34,NE,47,0.0,0.0,66,0.00,,SKC,0.00,VWS V13.00,2013-01-23 05:33:00,
2013-01-22 23:38:00,32.9,22.4,30.34,NE,47,0.0,0.0,65,0.00,,SKC,0.00,VWS V13.00,2013-01-23 05:38:00,
2013-01-22 23:43:00,32.9,22.4,30.34,NE,47,0.0,0.0,65,0.00,,SKC,0.00,VWS V13.00,2013-01-23 05:43:00,
2013-01-22 23:48:00,32.9,22.4,30.34,NE,47,0.0,0.0,65,0.00,,SKC,0.00,VWS V13.00,2013-01-23 05:48:00,
2013-01-22 23:53:00,32.9,23.9,30.34,NE,47,0.0,0.0,69,0.00,,SKC,0.00,VWS V13.00,2013-01-23 05:53:00,
2013-01-22 23:58:00,32.9,23.2,30.34,NE,47,0.0,0.0,67,0.00,,SKC,0.00,VWS V13.00,2013-01-23 05:58:00,